createdAt,value
2022-10-11T00:02:11.439Z,102733.91
2022-10-11T00:04:38.480Z,102736.50
2022-10-11T00:07:05.493Z,102731.19
2022-10-11T00:09:32.593Z,102729.44
2022-10-11T00:12:00.395Z,102729.47
2022-10-11T00:14:28.107Z,102732.91
2022-10-11T00:16:55.215Z,102733.78
2022-10-11T00:19:22.913Z,102728.56
2022-10-11T00:21:49.869Z,102733.72
2022-10-11T00:24:17.063Z,102720.72
2022-10-11T00:26:46.717Z,102724.28
2022-10-11T00:29:14.182Z,102729.41
2022-10-11T00:31:41.083Z,102728.59
2022-10-11T00:34:08.893Z,102737.28
2022-10-11T00:36:35.881Z,102732.06
2022-10-11T00:39:03.285Z,102727.72
2022-10-11T00:41:30.432Z,102727.72
2022-10-11T00:44:14.901Z,102729.53
2022-10-11T00:46:53.662Z,102737.38
2022-10-11T00:49:38.887Z,102726.94
2022-10-11T00:52:31.908Z,102720.00
2022-10-11T00:55:02.735Z,102722.63
2022-10-11T00:57:34.240Z,102726.09
2022-10-11T01:00:01.635Z,102719.13
2022-10-11T01:02:30.551Z,102717.41
2022-10-11T01:05:25.033Z,102713.88
2022-10-11T01:07:47.773Z,102717.41
2022-10-11T01:10:15.123Z,102716.56
2022-10-11T01:13:08.074Z,102701.81
2022-10-11T01:16:04.744Z,102709.63
2022-10-11T01:18:50.204Z,102711.34
2022-10-11T01:21:22.821Z,102713.09
2022-10-11T01:24:08.859Z,102719.22
2022-10-11T01:26:55.525Z,102708.75
2022-10-11T01:29:41.197Z,102694.72
2022-10-11T01:32:23.512Z,102695.56
2022-10-11T01:35:05.207Z,102691.22
2022-10-11T01:37:37.169Z,102685.03
2022-10-11T01:40:09.896Z,102678.03
2022-10-11T01:42:39.973Z,102684.13
2022-10-11T01:45:14.240Z,102678.88
2022-10-11T01:47:42.625Z,102677.09
2022-10-11T01:50:37.926Z,102676.22
2022-10-11T01:53:32.190Z,102666.63
2022-10-11T01:56:15.644Z,102670.22
2022-10-11T01:59:12.633Z,102668.38
2022-10-11T02:01:48.298Z,102665.81
2022-10-11T02:04:26.289Z,102668.41
2022-10-11T02:06:59.072Z,102671.94
2022-10-11T02:10:03.855Z,102660.59
2022-10-11T02:12:40.322Z,102663.25
2022-10-11T02:15:11.570Z,102663.25
2022-10-11T02:17:48.050Z,102655.44
2022-10-11T02:20:21.992Z,102656.38
2022-10-11T02:22:52.471Z,102661.53
2022-10-11T02:25:24.597Z,102661.53
2022-10-11T02:27:55.124Z,102669.34
2022-10-11T02:30:22.736Z,102660.63
2022-10-11T02:32:51.822Z,102668.50
2022-10-11T02:35:19.440Z,102665.00
2022-10-11T02:38:12.955Z,102664.13
2022-10-11T02:40:45.224Z,102663.31
2022-10-11T02:43:18.933Z,102661.59
2022-10-11T02:45:51.144Z,102658.19
2022-10-11T02:48:19.135Z,102659.06
2022-10-11T02:50:46.312Z,102644.22
2022-10-11T02:53:13.101Z,102636.41
2022-10-11T02:55:40.617Z,102634.69
2022-10-11T02:58:07.466Z,102628.53
2022-10-11T03:00:34.359Z,102630.28
2022-10-11T03:03:01.399Z,102625.03
2022-10-11T03:05:28.339Z,102628.50
2022-10-11T03:07:55.224Z,102633.69
2022-10-11T03:10:22.234Z,102628.47
2022-10-11T03:12:49.029Z,102633.66
2022-10-11T03:15:15.973Z,102629.31
2022-10-11T03:17:42.875Z,102625.84
2022-10-11T03:20:10.074Z,102632.88
2022-10-11T03:22:37.013Z,102626.78
2022-10-11T03:25:04.890Z,102621.59
2022-10-11T03:27:33.615Z,102623.38
2022-10-11T03:30:01.273Z,102624.22
2022-10-11T03:32:29.184Z,102628.63
2022-10-11T03:34:56.182Z,102612.97
2022-10-11T03:37:23.091Z,102622.56
2022-10-11T03:39:49.882Z,102617.41
2022-10-11T03:42:17.287Z,102632.25
2022-10-11T03:44:44.220Z,102630.53
2022-10-11T03:47:11.076Z,102622.72
2022-10-11T03:49:42.742Z,102619.28
2022-10-11T03:52:10.893Z,102619.31
2022-10-11T03:54:37.788Z,102617.59
2022-10-11T03:57:04.680Z,102624.63
2022-10-11T03:59:31.676Z,102630.72
2022-10-11T04:01:58.664Z,102629.09
2022-10-11T04:04:25.621Z,102624.72
2022-10-11T04:06:52.568Z,102627.34
2022-10-11T04:09:19.518Z,102609.19
2022-10-11T04:11:46.458Z,102618.69
2022-10-11T04:14:13.307Z,102612.63
2022-10-11T04:16:40.345Z,102616.19
2022-10-11T04:19:07.443Z,102616.31
2022-10-11T04:21:34.497Z,102622.50
2022-10-11T04:24:01.382Z,102608.66
2022-10-11T04:26:28.390Z,102609.66
2022-10-11T04:28:55.440Z,102618.53
2022-10-11T04:31:22.730Z,102630.06
2022-10-11T04:33:50.288Z,102620.53
2022-10-11T04:36:17.388Z,102626.69
2022-10-11T04:38:44.229Z,102624.94
2022-10-11T04:41:13.743Z,102622.31
2022-10-11T04:43:40.628Z,102619.69
2022-10-11T04:46:08.650Z,102617.91
2022-10-11T04:48:36.515Z,102608.28
2022-10-11T04:51:03.469Z,102621.34
2022-10-11T04:53:30.305Z,102625.63
2022-10-11T04:56:01.064Z,102621.28
2022-10-11T04:58:29.216Z,102624.72
2022-10-11T05:00:56.717Z,102609.09
2022-10-11T05:03:24.022Z,102611.69
2022-10-11T05:05:51.641Z,102616.03
2022-10-11T05:08:19.192Z,102609.91
2022-10-11T05:10:58.281Z,102605.66
2022-10-11T05:13:25.686Z,102617.84
2022-10-11T05:15:53.092Z,102604.78
2022-10-11T05:18:20.602Z,102597.03
2022-10-11T05:20:47.541Z,102614.38
2022-10-11T05:23:14.947Z,102603.09
2022-10-11T05:25:42.195Z,102602.22
2022-10-11T05:28:09.131Z,102602.22
2022-10-11T05:30:36.094Z,102594.38
2022-10-11T05:33:03.139Z,102595.22
2022-10-11T05:35:30.075Z,102601.31
2022-10-11T05:37:56.919Z,102594.38
2022-10-11T05:40:23.916Z,102601.31
2022-10-11T05:42:50.707Z,102607.44
2022-10-11T05:45:17.557Z,102597.84
2022-10-11T05:47:44.538Z,102597.03
2022-10-11T05:50:11.799Z,102588.34
2022-10-11T05:52:38.742Z,102589.25
2022-10-11T05:55:06.101Z,102597.09
2022-10-11T05:57:33.027Z,102599.72
2022-10-11T05:59:59.948Z,102605.84
2022-10-11T06:02:26.981Z,102607.56
2022-10-11T06:04:53.970Z,102605.84
2022-10-11T06:07:20.831Z,102611.06
2022-10-11T06:10:13.109Z,102592.78
2022-10-11T06:12:39.955Z,102595.34
2022-10-11T06:15:08.640Z,102591.88
2022-10-11T06:17:35.588Z,102596.25
2022-10-11T06:20:02.578Z,102594.50
2022-10-11T06:22:29.634Z,102587.63
2022-10-11T06:24:56.538Z,102596.31
2022-10-11T06:27:23.363Z,102602.50
2022-10-11T06:29:50.256Z,102592.91
2022-10-11T06:32:17.457Z,102589.47
2022-10-11T06:34:44.311Z,102584.25
2022-10-11T06:37:11.139Z,102583.31
2022-10-11T06:39:38.089Z,102582.44
2022-10-11T06:42:05.047Z,102592.00
2022-10-11T06:44:31.876Z,102600.66
2022-10-11T06:46:58.839Z,102597.16
2022-10-11T06:49:25.721Z,102601.50
2022-10-11T06:51:52.689Z,102608.47
2022-10-11T06:54:19.713Z,102609.28
2022-10-11T06:56:46.649Z,102604.06
2022-10-11T06:59:15.130Z,102610.13
2022-10-11T07:01:42.908Z,102610.13
2022-10-11T07:04:10.119Z,102597.88
2022-10-11T07:06:39.909Z,102594.41
2022-10-11T07:09:07.832Z,102595.28
2022-10-11T07:11:35.444Z,102598.78
2022-10-11T07:14:07.902Z,102598.78
2022-10-11T07:16:36.720Z,102587.53
2022-10-11T07:19:05.870Z,102602.22
2022-10-11T07:21:34.647Z,102609.13
2022-10-11T07:24:02.304Z,102594.34
2022-10-11T07:26:36.678Z,102599.53
2022-10-11T07:29:04.795Z,102600.38
2022-10-11T07:31:32.095Z,102596.06
2022-10-11T07:33:58.933Z,102594.25
2022-10-11T07:36:26.292Z,102592.50
2022-10-11T07:38:53.141Z,102596.84
2022-10-11T07:41:20.194Z,102599.41
2022-10-11T07:43:49.871Z,102593.34
2022-10-11T07:46:17.803Z,102592.47
2022-10-11T07:48:45.415Z,102589.84
2022-10-11T07:51:12.316Z,102588.06
2022-10-11T07:53:44.180Z,102584.53
2022-10-11T07:56:13.935Z,102585.34
2022-10-11T07:58:41.744Z,102581.81
2022-10-11T08:01:10.603Z,102580.88
2022-10-11T08:03:38.762Z,102579.03
2022-10-11T08:06:09.433Z,102579.03
2022-10-11T08:08:37.775Z,102567.56
2022-10-11T08:11:05.905Z,102563.06
2022-10-11T08:13:34.014Z,102559.47
2022-10-11T08:16:01.877Z,102558.50
2022-10-11T08:18:29.143Z,102562.78
2022-10-11T08:20:55.978Z,102561.78
2022-10-11T08:23:22.869Z,102566.00
2022-10-11T08:25:49.774Z,102565.88
2022-10-11T08:28:20.946Z,102565.69
2022-10-11T08:30:52.788Z,102553.28
2022-10-11T08:33:22.536Z,102562.63
2022-10-11T08:35:50.700Z,102556.97
2022-10-11T08:38:18.160Z,102566.09
2022-10-11T08:40:55.909Z,102565.69
2022-10-11T08:43:31.661Z,102556.59
2022-10-11T08:46:01.630Z,102546.69
2022-10-11T08:48:49.362Z,102552.53
2022-10-11T08:51:24.863Z,102546.84
2022-10-11T08:53:54.354Z,102547.19
2022-10-11T08:56:23.570Z,102544.84
2022-10-11T08:59:03.080Z,102551.22
2022-10-11T09:01:31.950Z,102550.66
2022-10-11T09:04:03.128Z,102543.25
2022-10-11T09:06:41.075Z,102555.88
2022-10-11T09:09:51.445Z,102555.75
2022-10-11T09:12:31.796Z,102549.31
2022-10-11T09:15:02.801Z,102551.88
2022-10-11T09:17:32.241Z,102557.75
2022-10-11T09:20:36.207Z,102555.25
2022-10-11T09:23:15.596Z,102560.03
2022-10-11T09:25:54.876Z,102548.09
2022-10-11T09:28:24.602Z,102550.84
2022-10-11T09:30:55.077Z,102551.03
2022-10-11T09:33:28.057Z,102555.63
2022-10-11T09:35:57.508Z,102551.28
2022-10-11T09:38:37.614Z,102544.09
2022-10-11T09:41:30.719Z,102536.91
2022-10-11T09:43:57.561Z,102538.19
2022-10-11T09:46:37.008Z,102532.75
2022-10-11T09:49:14.964Z,102541.22
2022-10-11T09:51:47.177Z,102525.31
2022-10-11T09:54:14.027Z,102520.72
2022-10-11T09:56:45.772Z,102524.00
2022-10-11T09:59:30.432Z,102508.72
2022-10-11T10:02:27.377Z,102517.81
2022-10-11T10:04:54.178Z,102515.75
2022-10-11T10:07:22.143Z,102512.09
2022-10-11T10:09:49.916Z,102518.13
2022-10-11T10:12:26.970Z,102514.81
2022-10-11T10:15:06.014Z,102509.53
2022-10-11T10:17:33.674Z,102499.34
2022-10-11T10:20:00.889Z,102516.59
2022-10-11T10:22:34.739Z,102521.03
2022-10-11T10:25:08.132Z,102516.44
2022-10-11T10:27:35.543Z,102511.97
2022-10-11T10:30:10.579Z,102518.97
2022-10-11T10:33:06.047Z,102521.50
2022-10-11T10:35:35.798Z,102515.03
2022-10-11T10:38:08.222Z,102511.22
2022-10-11T10:40:43.418Z,102508.91
2022-10-11T10:43:15.771Z,102509.41
2022-10-11T10:46:10.002Z,102508.19
2022-10-11T10:51:48.611Z,102499.78
2022-10-11T10:54:42.935Z,102500.19
2022-10-11T10:57:24.933Z,102494.56
2022-10-11T11:00:12.364Z,102491.59
2022-10-11T11:03:01.863Z,102485.78
2022-10-11T11:05:56.739Z,102492.13
2022-10-11T11:08:23.734Z,102482.72
2022-10-11T11:11:19.865Z,102477.91
2022-10-11T11:14:20.496Z,102473.88
2022-10-11T11:17:28.829Z,102476.09
2022-10-11T11:20:09.179Z,102470.88
2022-10-11T11:22:46.160Z,102465.25
2022-10-11T11:25:31.118Z,102465.13
2022-10-11T11:28:09.763Z,102471.19
2022-10-11T11:31:00.544Z,102471.06
2022-10-11T11:33:30.194Z,102465.91
2022-10-11T11:36:04.332Z,102460.56
2022-10-11T11:38:43.441Z,102459.41
2022-10-11T11:41:26.209Z,102459.94
2022-10-11T11:43:59.415Z,102453.13
2022-10-11T11:46:42.731Z,102456.25
2022-10-11T11:49:24.304Z,102454.25
2022-10-11T11:51:52.189Z,102455.03
2022-10-11T11:54:48.006Z,102449.28
2022-10-11T11:57:46.488Z,102440.72
2022-10-11T12:00:19.793Z,102443.38
2022-10-11T12:03:00.100Z,102434.56
2022-10-11T12:05:32.128Z,102428.09
2022-10-11T12:08:08.392Z,102429.44
2022-10-11T12:10:40.032Z,102431.00
2022-10-11T12:13:20.705Z,102414.56
2022-10-11T12:16:17.281Z,102409.63
2022-10-11T12:19:04.156Z,102413.94
2022-10-11T12:21:39.642Z,102403.44
2022-10-11T12:24:06.387Z,102399.31
2022-10-11T12:26:37.218Z,102401.72
2022-10-11T12:29:21.499Z,102395.38
2022-10-11T12:31:50.317Z,102401.69
2022-10-11T12:34:23.148Z,102398.03
2022-10-11T12:36:51.474Z,102384.53
2022-10-11T12:39:21.239Z,102391.84
2022-10-11T12:41:48.743Z,102387.78
2022-10-11T12:44:18.652Z,102389.03
2022-10-11T12:46:51.644Z,102382.31
2022-10-11T12:49:46.751Z,102374.16
2022-10-11T12:52:16.726Z,102377.16
2022-10-11T12:55:14.930Z,102371.47
2022-10-11T12:58:06.256Z,102373.53
2022-10-11T13:00:51.652Z,102365.97
2022-10-11T13:03:46.735Z,102367.59
2022-10-11T13:06:21.166Z,102353.34
2022-10-11T13:08:54.862Z,102363.84
2022-10-11T13:11:24.959Z,102353.78
2022-10-11T13:13:56.224Z,102352.53
2022-10-11T13:16:28.044Z,102341.19
2022-10-11T13:18:58.571Z,102348.78
2022-10-11T13:21:33.442Z,102341.03
2022-10-11T13:24:16.270Z,102326.78
2022-10-11T13:26:45.977Z,102317.41
2022-10-11T13:29:20.987Z,102321.44
2022-10-11T13:31:49.444Z,102312.38
2022-10-11T13:34:19.743Z,102315.47
2022-10-11T13:36:54.282Z,102309.25
2022-10-11T13:39:51.944Z,102296.91
2022-10-11T13:42:21.662Z,102294.34
2022-10-11T13:44:48.856Z,102301.50
2022-10-11T13:47:18.833Z,102285.88
2022-10-11T13:50:01.545Z,102283.31
2022-10-11T13:52:28.488Z,102271.00
2022-10-11T13:55:10.129Z,102261.50
2022-10-11T13:57:41.932Z,102259.72
2022-10-11T14:00:16.000Z,102265.00
2022-10-11T14:02:57.219Z,102256.56
2022-10-11T14:05:36.974Z,102264.56
2022-10-11T14:08:43.336Z,102266.84
2022-10-11T14:11:12.284Z,102246.13
2022-10-11T14:13:45.006Z,102243.06
2022-10-11T14:16:28.026Z,102249.91
2022-10-11T14:19:00.604Z,102247.56
2022-10-11T14:21:48.544Z,102254.59
2022-10-11T14:24:17.911Z,102242.22
2022-10-11T14:26:50.010Z,102244.09
2022-10-11T14:29:31.488Z,102228.94
2022-10-11T14:32:18.666Z,102224.72
2022-10-11T14:34:47.723Z,102228.56
2022-10-11T14:37:18.548Z,102217.03
2022-10-11T14:39:47.859Z,102213.78
2022-10-11T14:42:15.600Z,102204.59
2022-10-11T14:44:42.507Z,102206.06
2022-10-11T14:47:16.161Z,102202.91
2022-10-11T14:49:43.254Z,102193.69
2022-10-11T14:52:13.735Z,102200.25
2022-10-11T14:54:41.242Z,102194.97
2022-10-11T14:57:08.447Z,102190.28
2022-10-11T14:59:37.870Z,102174.44
2022-10-11T15:02:07.619Z,102194.13
2022-10-11T15:04:34.788Z,102185.19
2022-10-11T15:07:02.129Z,102184.25
2022-10-11T15:09:29.426Z,102172.88
2022-10-11T15:11:56.975Z,102170.75
2022-10-11T15:14:24.638Z,102167.06
2022-10-11T15:16:51.682Z,102173.97
2022-10-11T15:19:21.755Z,102166.69
2022-10-11T15:21:49.720Z,102156.59
2022-10-11T15:24:20.100Z,102164.69
2022-10-11T15:26:48.086Z,102158.63
2022-10-11T15:29:17.985Z,102161.63
2022-10-11T15:31:46.514Z,102161.16
2022-10-11T15:34:13.751Z,102150.47
2022-10-11T15:36:41.015Z,102151.69
2022-10-11T15:39:27.935Z,102152.03
2022-10-11T15:41:54.926Z,102146.13
2022-10-11T15:44:21.733Z,102141.78
2022-10-11T15:46:48.727Z,102132.19
2022-10-11T15:49:17.190Z,102120.53
2022-10-11T15:51:44.194Z,102122.25
2022-10-11T15:54:11.038Z,102121.91
2022-10-11T15:56:38.176Z,102111.44
2022-10-11T15:59:05.228Z,102112.78
2022-10-11T16:01:32.203Z,102109.78
2022-10-11T16:03:59.071Z,102106.75
2022-10-11T16:06:25.919Z,102112.31
2022-10-11T16:08:52.907Z,102105.72
2022-10-11T16:11:21.167Z,102103.34
2022-10-11T16:13:49.199Z,102105.19
2022-10-11T16:16:16.059Z,102102.72
2022-10-11T16:18:42.990Z,102102.09
2022-10-11T16:21:14.343Z,102091.69
2022-10-11T16:23:41.284Z,102085.03
2022-10-11T16:26:13.599Z,102077.19
2022-10-11T16:28:42.171Z,102069.66
2022-10-11T16:31:11.187Z,102071.50
2022-10-11T16:33:46.285Z,102062.94
2022-10-11T16:36:32.146Z,102057.69
2022-10-11T16:38:59.660Z,102064.81
2022-10-11T16:41:26.518Z,102059.69
2022-10-11T16:43:55.041Z,102064.31
2022-10-11T16:46:22.246Z,102063.41
2022-10-11T16:48:49.543Z,102062.72
2022-10-11T16:51:16.383Z,102060.84
2022-10-11T16:53:43.282Z,102055.66
2022-10-11T16:56:12.119Z,102053.91
2022-10-11T16:58:39.079Z,102047.75
2022-10-11T17:01:11.173Z,102052.16
2022-10-11T17:03:38.685Z,102038.38
2022-10-11T17:06:06.782Z,102046.34
2022-10-11T17:08:35.302Z,102044.81
2022-10-11T17:11:02.955Z,102037.25
2022-10-11T17:13:30.100Z,102033.16
2022-10-11T17:15:57.160Z,102035.16
2022-10-11T17:18:24.349Z,102019.72
2022-10-11T17:20:51.461Z,102023.22
2022-10-11T17:23:18.672Z,102018.09
2022-10-11T17:25:47.034Z,102013.91
2022-10-11T17:28:14.009Z,102011.41
2022-10-11T17:30:42.249Z,102015.13
2022-10-11T17:33:09.390Z,102010.06
2022-10-11T17:35:36.405Z,102005.00
2022-10-11T17:38:06.209Z,102006.16
2022-10-11T17:40:33.514Z,102001.03
2022-10-11T17:43:00.478Z,102004.59
2022-10-11T17:45:27.406Z,101997.75
2022-10-11T17:47:54.205Z,102000.31
2022-10-11T17:50:21.248Z,101997.91
2022-10-11T17:52:48.254Z,101998.91
2022-10-11T17:55:15.241Z,101986.84
2022-10-11T17:57:42.347Z,101985.13
2022-10-11T18:00:09.992Z,101988.81
2022-10-11T18:02:38.782Z,101977.50
2022-10-11T18:05:07.005Z,101982.81
2022-10-11T18:07:34.269Z,101981.97
2022-10-11T18:10:01.174Z,101972.41
2022-10-11T18:12:28.413Z,101983.84
2022-10-11T18:14:55.304Z,101979.50
2022-10-11T18:17:22.146Z,101973.38
2022-10-11T18:19:49.030Z,101969.91
2022-10-11T18:22:16.233Z,101970.81
2022-10-11T18:24:43.083Z,101975.31
2022-10-11T18:27:09.976Z,101967.69
2022-10-11T18:29:36.924Z,101969.06
2022-10-11T18:32:03.808Z,101971.25
2022-10-11T18:34:30.754Z,101977.00
2022-10-11T18:36:57.912Z,101974.84
2022-10-11T18:39:24.955Z,101972.53
2022-10-11T18:41:51.994Z,101973.72
2022-10-11T18:44:18.955Z,101972.28
2022-10-11T18:46:46.456Z,101970.03
2022-10-11T18:49:13.820Z,101966.84
2022-10-11T18:51:42.086Z,101966.31
2022-10-11T18:54:12.914Z,101960.38
2022-10-11T18:56:42.319Z,101964.97
2022-10-11T18:59:10.402Z,101956.38
2022-10-11T19:01:40.720Z,101958.28
2022-10-11T19:04:10.590Z,101947.00
2022-10-11T19:06:40.301Z,101950.59
2022-10-11T19:09:17.989Z,101941.88
2022-10-11T19:11:45.095Z,101931.38
2022-10-11T19:14:15.258Z,101930.50
2022-10-11T19:16:49.983Z,101926.97
2022-10-11T19:19:21.753Z,101929.53
2022-10-11T19:21:48.941Z,101925.13
2022-10-11T19:24:17.803Z,101925.06
2022-10-11T19:26:45.248Z,101921.72
2022-10-11T19:29:19.247Z,101927.56
2022-10-11T19:31:54.836Z,101923.09
2022-10-11T19:34:23.235Z,101917.72
2022-10-11T19:36:50.996Z,101911.53
2022-10-11T19:39:18.767Z,101922.84
2022-10-11T19:41:46.414Z,101909.66
2022-10-11T19:44:14.386Z,101905.19
2022-10-11T19:46:51.400Z,101903.41
2022-10-11T19:49:22.850Z,101904.19
2022-10-11T19:51:49.967Z,101897.19
2022-10-11T19:54:17.372Z,101895.41
2022-10-11T19:56:44.891Z,101898.03
2022-10-11T19:59:13.361Z,101890.16
2022-10-11T20:01:41.455Z,101893.56
2022-10-11T20:04:22.963Z,101889.16
2022-10-11T20:06:58.566Z,101882.22
2022-10-11T20:09:30.206Z,101886.59
2022-10-11T20:11:57.846Z,101884.91
2022-10-11T20:14:25.185Z,101883.13
2022-10-11T20:16:52.449Z,101883.97
2022-10-11T20:19:19.588Z,101880.44
2022-10-11T20:21:46.582Z,101868.22
2022-10-11T20:24:13.529Z,101878.59
2022-10-11T20:26:40.559Z,101857.06
2022-10-11T20:29:07.593Z,101872.44
2022-10-11T20:31:41.227Z,101860.94
2022-10-11T20:34:09.397Z,101861.81
2022-10-11T20:36:36.833Z,101865.22
2022-10-11T20:39:08.261Z,101850.25
2022-10-11T20:41:37.335Z,101848.53
2022-10-11T20:44:05.120Z,101838.91
2022-10-11T20:46:34.831Z,101845.91
2022-10-11T20:49:08.227Z,101830.16
2022-10-11T20:51:37.212Z,101836.22
2022-10-11T20:54:04.989Z,101830.03
2022-10-11T20:56:32.434Z,101825.78
2022-10-11T20:58:59.482Z,101820.38
2022-10-11T21:01:30.588Z,101816.84
2022-10-11T21:03:58.817Z,101813.28
2022-10-11T21:06:26.915Z,101808.88
2022-10-11T21:08:59.194Z,101810.56
2022-10-11T21:11:31.509Z,101807.03
2022-10-11T21:14:00.861Z,101805.19
2022-10-11T21:16:28.064Z,101805.06
2022-10-11T21:18:56.851Z,101799.69
2022-10-11T21:21:24.409Z,101791.78
2022-10-11T21:23:58.943Z,101805.00
2022-10-11T21:26:27.526Z,101795.47
2022-10-11T21:28:54.665Z,101782.50
2022-10-11T21:31:23.011Z,101791.28
2022-10-11T21:33:49.999Z,101781.69
2022-10-11T21:36:19.782Z,101768.56
2022-10-11T21:38:48.181Z,101768.72
2022-10-11T21:41:21.166Z,101772.06
2022-10-11T21:43:48.827Z,101763.31
2022-10-11T21:46:21.459Z,101763.31
2022-10-11T21:48:50.205Z,101762.41
2022-10-11T21:51:26.374Z,101755.38
2022-10-11T21:53:54.076Z,101755.28
2022-10-11T21:56:21.088Z,101749.13
2022-10-11T21:58:48.776Z,101747.28
2022-10-11T22:01:16.785Z,101745.44
2022-10-11T22:03:44.245Z,101733.06
2022-10-11T22:06:11.309Z,101732.16
2022-10-11T22:08:39.054Z,101721.59
2022-10-11T22:11:06.687Z,101717.88
2022-10-11T22:13:34.391Z,101720.44
2022-10-11T22:16:06.219Z,101724.78
2022-10-11T22:18:33.896Z,101712.34
2022-10-11T22:21:12.082Z,101708.88
2022-10-11T22:23:39.175Z,101709.59
2022-10-11T22:26:08.687Z,101702.41
2022-10-11T22:28:36.246Z,101707.59
2022-10-11T22:31:05.894Z,101705.66
2022-10-11T22:33:33.171Z,101701.19
2022-10-11T22:36:02.154Z,101696.63
2022-10-11T22:38:29.546Z,101691.16
2022-10-11T22:40:58.849Z,101686.75
2022-10-11T22:43:25.737Z,101690.97
2022-10-11T22:45:52.836Z,101683.03
2022-10-11T22:48:19.833Z,101652.81
2022-10-11T22:50:47.389Z,101660.31
2022-10-11T22:53:15.372Z,101662.00
2022-10-11T22:55:42.260Z,101662.44
2022-10-11T22:58:09.651Z,101660.66
2022-10-11T23:00:36.868Z,101666.59
2022-10-11T23:03:04.523Z,101658.72
2022-10-11T23:05:31.467Z,101655.09
2022-10-11T23:07:58.409Z,101651.53
2022-10-11T23:10:25.304Z,101654.97
2022-10-11T23:12:52.199Z,101650.47
2022-10-11T23:15:19.113Z,101651.22
2022-10-11T23:17:46.196Z,101644.19
2022-10-11T23:20:13.288Z,101642.31
2022-10-11T23:22:40.088Z,101640.56
2022-10-11T23:25:07.646Z,101644.03
2022-10-11T23:27:34.797Z,101636.06
2022-10-11T23:30:01.799Z,101631.81
2022-10-11T23:32:28.684Z,101637.59
2022-10-11T23:34:55.626Z,101636.69
2022-10-11T23:37:22.506Z,101634.06
2022-10-11T23:39:49.413Z,101629.72
2022-10-11T23:42:16.353Z,101638.31
2022-10-11T23:44:43.299Z,101631.28
2022-10-11T23:47:10.153Z,101633.03
2022-10-11T23:49:37.092Z,101624.22
2022-10-11T23:52:04.083Z,101632.88
2022-10-11T23:54:30.884Z,101619.06
2022-10-11T23:56:57.817Z,101626.72
2022-10-11T23:59:24.864Z,101620.44
